sensor_id;sensor_type;location;lat;lon;timestamp;temperature;humidity
8595;DHT22;4335;48.860;9.198;2024-02-23T00:00:05;7.20;99.90
8595;DHT22;4335;48.860;9.198;2024-02-23T00:02:41;7.20;99.90
8595;DHT22;4335;48.860;9.198;2024-02-23T00:05:08;7.20;99.90
8595;DHT22;4335;48.860;9.198;2024-02-23T00:07:36;7.30;99.90
8595;DHT22;4335;48.860;9.198;2024-02-23T00:10:04;7.30;99.90
8595;DHT22;4335;48.860;9.198;2024-02-23T00:12:36;7.30;99.90
8595;DHT22;4335;48.860;9.198;2024-02-23T00:15:04;7.30;99.90
8595;DHT22;4335;48.860;9.198;2024-02-23T00:17:36;7.30;99.90
8595;DHT22;4335;48.860;9.198;2024-02-23T00:20:08;7.30;99.90
8595;DHT22;4335;48.860;9.198;2024-02-23T00:22:36;7.30;99.90
8595;DHT22;4335;48.860;9.198;2024-02-23T00:25:05;7.30;99.90
8595;DHT22;4335;48.860;9.198;2024-02-23T00:27:32;7.30;99.90
8595;DHT22;4335;48.860;9.198;2024-02-23T00:29:59;7.30;99.90
8595;DHT22;4335;48.860;9.198;2024-02-23T00:32:30;7.30;99.90
8595;DHT22;4335;48.860;9.198;2024-02-23T00:34:59;7.30;99.90
8595;DHT22;4335;48.860;9.198;2024-02-23T00:37:45;7.30;99.90
8595;DHT22;4335;48.860;9.198;2024-02-23T00:40:12;7.20;99.90
8595;DHT22;4335;48.860;9.198;2024-02-23T00:42:43;7.20;99.90
8595;DHT22;4335;48.860;9.198;2024-02-23T00:45:10;7.30;99.90
8595;DHT22;4335;48.860;9.198;2024-02-23T00:47:38;7.20;99.90
8595;DHT22;4335;48.860;9.198;2024-02-23T00:50:06;7.20;99.90
8595;DHT22;4335;48.860;9.198;2024-02-23T00:52:35;7.20;99.90
8595;DHT22;4335;48.860;9.198;2024-02-23T00:55:03;7.20;99.90
8595;DHT22;4335;48.860;9.198;2024-02-23T00:57:33;7.20;99.90
8595;DHT22;4335;48.860;9.198;2024-02-23T01:00:01;7.20;99.90
8595;DHT22;4335;48.860;9.198;2024-02-23T01:02:30;7.20;99.90
8595;DHT22;4335;48.860;9.198;2024-02-23T01:04:57;7.20;99.90
8595;DHT22;4335;48.860;9.198;2024-02-23T01:07:25;7.20;99.90
8595;DHT22;4335;48.860;9.198;2024-02-23T01:09:54;7.20;99.90
8595;DHT22;4335;48.860;9.198;2024-02-23T01:12:21;7.20;99.90
8595;DHT22;4335;48.860;9.198;2024-02-23T01:14:48;7.20;99.90
8595;DHT22;4335;48.860;9.198;2024-02-23T01:17:22;7.20;99.90
8595;DHT22;4335;48.860;9.198;2024-02-23T01:19:49;7.30;99.90
8595;DHT22;4335;48.860;9.198;2024-02-23T01:22:17;7.30;99.90
8595;DHT22;4335;48.860;9.198;2024-02-23T01:24:48;7.30;99.90
8595;DHT22;4335;48.860;9.198;2024-02-23T01:27:16;7.30;99.90
8595;DHT22;4335;48.860;9.198;2024-02-23T01:29:47;7.30;99.90
8595;DHT22;4335;48.860;9.198;2024-02-23T01:32:14;7.30;99.90
8595;DHT22;4335;48.860;9.198;2024-02-23T01:34:42;7.30;99.90
8595;DHT22;4335;48.860;9.198;2024-02-23T01:37:09;7.30;99.90
8595;DHT22;4335;48.860;9.198;2024-02-23T01:39:37;7.30;99.90
8595;DHT22;4335;48.860;9.198;2024-02-23T01:42:08;7.30;99.90
8595;DHT22;4335;48.860;9.198;2024-02-23T01:44:37;7.20;99.90
8595;DHT22;4335;48.860;9.198;2024-02-23T01:47:04;7.20;99.90
8595;DHT22;4335;48.860;9.198;2024-02-23T01:49:32;7.20;99.90
8595;DHT22;4335;48.860;9.198;2024-02-23T01:52:03;7.20;99.90
8595;DHT22;4335;48.860;9.198;2024-02-23T01:54:31;7.30;99.90
8595;DHT22;4335;48.860;9.198;2024-02-23T01:57:00;7.30;99.90
8595;DHT22;4335;48.860;9.198;2024-02-23T01:59:29;7.30;99.90
8595;DHT22;4335;48.860;9.198;2024-02-23T02:01:58;7.30;99.90
8595;DHT22;4335;48.860;9.198;2024-02-23T02:04:25;7.30;99.90
8595;DHT22;4335;48.860;9.198;2024-02-23T02:07:02;7.30;99.90
8595;DHT22;4335;48.860;9.198;2024-02-23T02:09:32;7.30;99.90
8595;DHT22;4335;48.860;9.198;2024-02-23T02:12:06;7.30;99.90
8595;DHT22;4335;48.860;9.198;2024-02-23T02:14:36;7.40;99.90
8595;DHT22;4335;48.860;9.198;2024-02-23T02:17:12;7.40;99.90
8595;DHT22;4335;48.860;9.198;2024-02-23T02:19:46;7.40;99.90
8595;DHT22;4335;48.860;9.198;2024-02-23T02:22:14;7.40;99.90
8595;DHT22;4335;48.860;9.198;2024-02-23T02:24:42;7.40;99.90
8595;DHT22;4335;48.860;9.198;2024-02-23T02:27:18;7.40;99.90
8595;DHT22;4335;48.860;9.198;2024-02-23T02:29:54;7.40;99.90
8595;DHT22;4335;48.860;9.198;2024-02-23T02:32:23;7.30;99.90
8595;DHT22;4335;48.860;9.198;2024-02-23T02:34:51;7.30;99.90
8595;DHT22;4335;48.860;9.198;2024-02-23T02:37:18;7.30;99.90
8595;DHT22;4335;48.860;9.198;2024-02-23T02:39:45;7.20;99.90
8595;DHT22;4335;48.860;9.198;2024-02-23T02:42:13;7.20;99.90
8595;DHT22;4335;48.860;9.198;2024-02-23T02:44:42;7.20;99.90
8595;DHT22;4335;48.860;9.198;2024-02-23T02:47:10;7.10;99.90
8595;DHT22;4335;48.860;9.198;2024-02-23T02:49:40;7.10;99.90
8595;DHT22;4335;48.860;9.198;2024-02-23T02:52:09;7.10;99.90
8595;DHT22;4335;48.860;9.198;2024-02-23T02:54:37;7.10;99.90
8595;DHT22;4335;48.860;9.198;2024-02-23T02:57:04;7.10;99.90
8595;DHT22;4335;48.860;9.198;2024-02-23T02:59:35;7.10;99.90
8595;DHT22;4335;48.860;9.198;2024-02-23T03:02:08;7.00;99.90
8595;DHT22;4335;48.860;9.198;2024-02-23T03:04:36;7.00;99.90
8595;DHT22;4335;48.860;9.198;2024-02-23T03:07:05;6.90;99.90
8595;DHT22;4335;48.860;9.198;2024-02-23T03:09:32;6.90;99.90
8595;DHT22;4335;48.860;9.198;2024-02-23T03:11:59;6.80;99.90
8595;DHT22;4335;48.860;9.198;2024-02-23T03:14:26;6.80;99.90
8595;DHT22;4335;48.860;9.198;2024-02-23T03:16:56;6.80;99.90
8595;DHT22;4335;48.860;9.198;2024-02-23T03:19:24;6.80;99.90
8595;DHT22;4335;48.860;9.198;2024-02-23T03:22:00;6.80;99.90
8595;DHT22;4335;48.860;9.198;2024-02-23T03:24:29;6.80;99.90
8595;DHT22;4335;48.860;9.198;2024-02-23T03:26:56;6.80;99.90
8595;DHT22;4335;48.860;9.198;2024-02-23T03:29:23;6.90;99.90
8595;DHT22;4335;48.860;9.198;2024-02-23T03:31:55;6.90;99.90
8595;DHT22;4335;48.860;9.198;2024-02-23T03:34:22;6.90;99.90
8595;DHT22;4335;48.860;9.198;2024-02-23T03:36:52;6.90;99.90
8595;DHT22;4335;48.860;9.198;2024-02-23T03:39:19;6.90;99.90
8595;DHT22;4335;48.860;9.198;2024-02-23T03:41:48;6.90;99.90
8595;DHT22;4335;48.860;9.198;2024-02-23T03:44:24;6.90;99.90
8595;DHT22;4335;48.860;9.198;2024-02-23T03:46:55;6.80;99.90
8595;DHT22;4335;48.860;9.198;2024-02-23T03:49:23;6.80;99.90
8595;DHT22;4335;48.860;9.198;2024-02-23T03:51:51;6.80;99.90
8595;DHT22;4335;48.860;9.198;2024-02-23T03:54:18;6.70;99.90
8595;DHT22;4335;48.860;9.198;2024-02-23T03:56:53;6.80;99.90
8595;DHT22;4335;48.860;9.198;2024-02-23T03:59:23;6.70;99.90
8595;DHT22;4335;48.860;9.198;2024-02-23T04:01:53;6.80;99.90
8595;DHT22;4335;48.860;9.198;2024-02-23T04:04:20;6.70;99.90
8595;DHT22;4335;48.860;9.198;2024-02-23T04:06:51;6.70;99.90
8595;DHT22;4335;48.860;9.198;2024-02-23T04:09:18;6.70;99.90
8595;DHT22;4335;48.860;9.198;2024-02-23T04:11:49;6.70;99.90
8595;DHT22;4335;48.860;9.198;2024-02-23T04:14:32;6.60;99.90
8595;DHT22;4335;48.860;9.198;2024-02-23T04:17:02;6.60;99.90
8595;DHT22;4335;48.860;9.198;2024-02-23T04:19:35;6.60;99.90
8595;DHT22;4335;48.860;9.198;2024-02-23T04:22:06;6.60;99.90
8595;DHT22;4335;48.860;9.198;2024-02-23T04:24:36;6.50;99.90
8595;DHT22;4335;48.860;9.198;2024-02-23T04:27:05;6.50;99.90
8595;DHT22;4335;48.860;9.198;2024-02-23T04:29:36;6.50;99.90
8595;DHT22;4335;48.860;9.198;2024-02-23T04:32:09;6.50;99.90
8595;DHT22;4335;48.860;9.198;2024-02-23T04:34:37;6.50;99.90
8595;DHT22;4335;48.860;9.198;2024-02-23T04:37:05;6.50;99.90
8595;DHT22;4335;48.860;9.198;2024-02-23T04:39:36;6.40;99.90
8595;DHT22;4335;48.860;9.198;2024-02-23T04:42:11;6.40;99.90
8595;DHT22;4335;48.860;9.198;2024-02-23T04:44:41;6.40;99.90
8595;DHT22;4335;48.860;9.198;2024-02-23T04:47:08;6.40;99.90
8595;DHT22;4335;48.860;9.198;2024-02-23T04:49:36;6.40;99.90
8595;DHT22;4335;48.860;9.198;2024-02-23T04:52:05;6.40;99.90
8595;DHT22;4335;48.860;9.198;2024-02-23T04:54:36;6.40;99.90
8595;DHT22;4335;48.860;9.198;2024-02-23T04:57:04;6.40;99.90
8595;DHT22;4335;48.860;9.198;2024-02-23T04:59:31;6.40;99.90
8595;DHT22;4335;48.860;9.198;2024-02-23T05:02:03;6.40;99.90
8595;DHT22;4335;48.860;9.198;2024-02-23T05:04:37;6.30;99.90
8595;DHT22;4335;48.860;9.198;2024-02-23T05:07:04;6.30;99.90
8595;DHT22;4335;48.860;9.198;2024-02-23T05:09:35;6.30;99.90
8595;DHT22;4335;48.860;9.198;2024-02-23T05:12:03;6.30;99.90
8595;DHT22;4335;48.860;9.198;2024-02-23T05:14:36;6.30;99.90
8595;DHT22;4335;48.860;9.198;2024-02-23T05:17:11;6.30;99.90
8595;DHT22;4335;48.860;9.198;2024-02-23T05:19:41;6.30;99.90
8595;DHT22;4335;48.860;9.198;2024-02-23T05:22:21;6.20;99.90
8595;DHT22;4335;48.860;9.198;2024-02-23T05:24:48;6.20;99.90
8595;DHT22;4335;48.860;9.198;2024-02-23T05:27:15;6.20;99.90
8595;DHT22;4335;48.860;9.198;2024-02-23T05:29:46;6.20;99.90
8595;DHT22;4335;48.860;9.198;2024-02-23T05:32:23;6.20;99.90
8595;DHT22;4335;48.860;9.198;2024-02-23T05:34:50;6.20;99.90
8595;DHT22;4335;48.860;9.198;2024-02-23T05:37:20;6.20;99.90
8595;DHT22;4335;48.860;9.198;2024-02-23T05:39:47;6.20;99.90
8595;DHT22;4335;48.860;9.198;2024-02-23T05:42:14;6.20;99.90
8595;DHT22;4335;48.860;9.198;2024-02-23T05:44:46;6.20;99.90
8595;DHT22;4335;48.860;9.198;2024-02-23T05:47:16;6.20;99.90
8595;DHT22;4335;48.860;9.198;2024-02-23T05:49:46;6.10;99.90
8595;DHT22;4335;48.860;9.198;2024-02-23T05:52:13;6.10;99.90
8595;DHT22;4335;48.860;9.198;2024-02-23T05:54:43;6.10;99.90
8595;DHT22;4335;48.860;9.198;2024-02-23T05:57:14;6.00;99.90
8595;DHT22;4335;48.860;9.198;2024-02-23T05:59:41;6.00;99.90
8595;DHT22;4335;48.860;9.198;2024-02-23T06:02:16;6.00;99.90
8595;DHT22;4335;48.860;9.198;2024-02-23T06:04:46;5.90;99.90
8595;DHT22;4335;48.860;9.198;2024-02-23T06:07:13;5.90;99.90
8595;DHT22;4335;48.860;9.198;2024-02-23T06:09:41;5.80;99.90
8595;DHT22;4335;48.860;9.198;2024-02-23T06:12:09;5.80;99.90
8595;DHT22;4335;48.860;9.198;2024-02-23T06:14:39;5.70;99.90
8595;DHT22;4335;48.860;9.198;2024-02-23T06:17:06;5.70;99.90
8595;DHT22;4335;48.860;9.198;2024-02-23T06:19:38;5.70;99.90
8595;DHT22;4335;48.860;9.198;2024-02-23T06:22:11;5.70;99.90
8595;DHT22;4335;48.860;9.198;2024-02-23T06:24:49;5.70;99.90
8595;DHT22;4335;48.860;9.198;2024-02-23T06:27:23;5.60;99.90
8595;DHT22;4335;48.860;9.198;2024-02-23T06:29:51;5.60;99.90
8595;DHT22;4335;48.860;9.198;2024-02-23T06:32:21;5.60;99.90
8595;DHT22;4335;48.860;9.198;2024-02-23T06:34:52;5.60;99.90
8595;DHT22;4335;48.860;9.198;2024-02-23T06:37:24;5.60;99.90
8595;DHT22;4335;48.860;9.198;2024-02-23T06:39:58;5.60;99.90
8595;DHT22;4335;48.860;9.198;2024-02-23T06:42:25;5.60;99.90
8595;DHT22;4335;48.860;9.198;2024-02-23T06:44:56;5.60;99.90
8595;DHT22;4335;48.860;9.198;2024-02-23T06:47:26;5.60;99.90
8595;DHT22;4335;48.860;9.198;2024-02-23T06:49:55;5.60;99.90
8595;DHT22;4335;48.860;9.198;2024-02-23T06:52:22;5.70;99.90
8595;DHT22;4335;48.860;9.198;2024-02-23T06:54:51;5.70;99.90
8595;DHT22;4335;48.860;9.198;2024-02-23T06:57:28;5.70;99.90
8595;DHT22;4335;48.860;9.198;2024-02-23T06:59:56;5.80;99.90
8595;DHT22;4335;48.860;9.198;2024-02-23T07:02:24;5.80;99.90
8595;DHT22;4335;48.860;9.198;2024-02-23T07:04:56;5.80;99.90
8595;DHT22;4335;48.860;9.198;2024-02-23T07:07:27;5.80;99.90
8595;DHT22;4335;48.860;9.198;2024-02-23T07:09:56;5.80;99.90
8595;DHT22;4335;48.860;9.198;2024-02-23T07:12:23;5.80;99.90
8595;DHT22;4335;48.860;9.198;2024-02-23T07:14:51;5.90;99.90
8595;DHT22;4335;48.860;9.198;2024-02-23T07:17:22;5.90;99.90
8595;DHT22;4335;48.860;9.198;2024-02-23T07:19:49;6.00;99.90
8595;DHT22;4335;48.860;9.198;2024-02-23T07:22:20;6.00;99.90
8595;DHT22;4335;48.860;9.198;2024-02-23T07:24:47;6.00;99.90
8595;DHT22;4335;48.860;9.198;2024-02-23T07:27:15;6.10;99.90
8595;DHT22;4335;48.860;9.198;2024-02-23T07:29:42;6.10;99.90
8595;DHT22;4335;48.860;9.198;2024-02-23T07:32:10;6.10;99.90
8595;DHT22;4335;48.860;9.198;2024-02-23T07:34:40;6.20;99.90
8595;DHT22;4335;48.860;9.198;2024-02-23T07:37:08;6.30;99.90
8595;DHT22;4335;48.860;9.198;2024-02-23T07:39:42;6.40;99.90
8595;DHT22;4335;48.860;9.198;2024-02-23T07:42:13;6.40;99.90
8595;DHT22;4335;48.860;9.198;2024-02-23T07:44:44;6.50;99.90
8595;DHT22;4335;48.860;9.198;2024-02-23T07:47:11;6.50;99.90
8595;DHT22;4335;48.860;9.198;2024-02-23T07:49:39;6.50;99.90
8595;DHT22;4335;48.860;9.198;2024-02-23T07:52:07;6.60;99.90
8595;DHT22;4335;48.860;9.198;2024-02-23T07:54:35;6.70;99.90
8595;DHT22;4335;48.860;9.198;2024-02-23T07:57:04;6.80;99.90
8595;DHT22;4335;48.860;9.198;2024-02-23T07:59:31;6.90;99.90
8595;DHT22;4335;48.860;9.198;2024-02-23T08:02:01;6.90;99.90
8595;DHT22;4335;48.860;9.198;2024-02-23T08:04:28;7.00;99.90
8595;DHT22;4335;48.860;9.198;2024-02-23T08:06:55;7.00;99.90
8595;DHT22;4335;48.860;9.198;2024-02-23T08:09:23;7.00;99.90
8595;DHT22;4335;48.860;9.198;2024-02-23T08:11:57;7.00;99.90
8595;DHT22;4335;48.860;9.198;2024-02-23T08:14:31;7.00;99.90
8595;DHT22;4335;48.860;9.198;2024-02-23T08:17:15;7.10;99.90
8595;DHT22;4335;48.860;9.198;2024-02-23T08:19:46;7.10;99.90
8595;DHT22;4335;48.860;9.198;2024-02-23T08:22:20;7.10;99.90
8595;DHT22;4335;48.860;9.198;2024-02-23T08:24:49;7.20;99.90
8595;DHT22;4335;48.860;9.198;2024-02-23T08:27:16;7.20;99.90
8595;DHT22;4335;48.860;9.198;2024-02-23T08:29:45;7.30;99.90
8595;DHT22;4335;48.860;9.198;2024-02-23T08:32:13;7.40;99.90
8595;DHT22;4335;48.860;9.198;2024-02-23T08:34:40;7.50;99.90
8595;DHT22;4335;48.860;9.198;2024-02-23T08:37:07;7.50;99.90
8595;DHT22;4335;48.860;9.198;2024-02-23T08:39:38;7.60;99.90
8595;DHT22;4335;48.860;9.198;2024-02-23T08:42:14;7.60;99.90
8595;DHT22;4335;48.860;9.198;2024-02-23T08:44:46;7.70;99.90
8595;DHT22;4335;48.860;9.198;2024-02-23T08:47:13;7.70;99.90
8595;DHT22;4335;48.860;9.198;2024-02-23T08:49:57;7.80;99.90
8595;DHT22;4335;48.860;9.198;2024-02-23T08:52:25;7.80;99.90
8595;DHT22;4335;48.860;9.198;2024-02-23T08:54:52;7.90;99.90
8595;DHT22;4335;48.860;9.198;2024-02-23T08:57:26;7.90;99.90
8595;DHT22;4335;48.860;9.198;2024-02-23T09:00:01;7.90;99.90
8595;DHT22;4335;48.860;9.198;2024-02-23T09:02:30;7.90;99.90
8595;DHT22;4335;48.860;9.198;2024-02-23T09:04:58;7.90;99.90
8595;DHT22;4335;48.860;9.198;2024-02-23T09:07:25;7.90;99.90
8595;DHT22;4335;48.860;9.198;2024-02-23T09:09:55;7.90;99.90
8595;DHT22;4335;48.860;9.198;2024-02-23T09:12:26;7.90;99.90
8595;DHT22;4335;48.860;9.198;2024-02-23T09:14:56;7.90;99.90
8595;DHT22;4335;48.860;9.198;2024-02-23T09:17:25;7.90;99.90
8595;DHT22;4335;48.860;9.198;2024-02-23T09:19:52;7.90;99.90
8595;DHT22;4335;48.860;9.198;2024-02-23T09:22:20;8.00;99.90
8595;DHT22;4335;48.860;9.198;2024-02-23T09:24:48;8.00;99.90
8595;DHT22;4335;48.860;9.198;2024-02-23T09:27:16;8.00;99.90
8595;DHT22;4335;48.860;9.198;2024-02-23T09:29:43;8.00;99.90
8595;DHT22;4335;48.860;9.198;2024-02-23T09:32:17;8.00;99.90
8595;DHT22;4335;48.860;9.198;2024-02-23T09:34:46;8.10;99.90
8595;DHT22;4335;48.860;9.198;2024-02-23T09:37:16;8.20;99.90
8595;DHT22;4335;48.860;9.198;2024-02-23T09:39:43;8.30;99.90
8595;DHT22;4335;48.860;9.198;2024-02-23T09:42:11;8.40;99.90
8595;DHT22;4335;48.860;9.198;2024-02-23T09:44:41;8.50;99.90
8595;DHT22;4335;48.860;9.198;2024-02-23T09:47:14;8.60;99.90
8595;DHT22;4335;48.860;9.198;2024-02-23T09:49:48;8.60;99.90
8595;DHT22;4335;48.860;9.198;2024-02-23T09:52:19;8.60;99.90
8595;DHT22;4335;48.860;9.198;2024-02-23T09:54:47;8.60;99.90
8595;DHT22;4335;48.860;9.198;2024-02-23T09:57:16;8.50;99.90
8595;DHT22;4335;48.860;9.198;2024-02-23T09:59:44;8.60;99.90
8595;DHT22;4335;48.860;9.198;2024-02-23T10:02:15;8.60;99.90
8595;DHT22;4335;48.860;9.198;2024-02-23T10:04:48;8.80;99.90
8595;DHT22;4335;48.860;9.198;2024-02-23T10:07:17;9.00;99.90
8595;DHT22;4335;48.860;9.198;2024-02-23T10:09:47;9.10;99.90
8595;DHT22;4335;48.860;9.198;2024-02-23T10:12:17;9.20;99.90
8595;DHT22;4335;48.860;9.198;2024-02-23T10:14:48;9.20;99.90
8595;DHT22;4335;48.860;9.198;2024-02-23T10:17:15;9.20;99.90
8595;DHT22;4335;48.860;9.198;2024-02-23T10:19:47;9.20;99.90
8595;DHT22;4335;48.860;9.198;2024-02-23T10:22:15;9.20;99.90
8595;DHT22;4335;48.860;9.198;2024-02-23T10:24:44;9.10;99.90
8595;DHT22;4335;48.860;9.198;2024-02-23T10:27:12;9.20;99.90
8595;DHT22;4335;48.860;9.198;2024-02-23T10:29:42;9.10;99.90
8595;DHT22;4335;48.860;9.198;2024-02-23T10:32:14;9.10;99.90
8595;DHT22;4335;48.860;9.198;2024-02-23T10:34:43;9.00;99.90
8595;DHT22;4335;48.860;9.198;2024-02-23T10:37:12;8.90;99.90
8595;DHT22;4335;48.860;9.198;2024-02-23T10:39:42;9.00;99.90
8595;DHT22;4335;48.860;9.198;2024-02-23T10:42:18;9.00;99.90
8595;DHT22;4335;48.860;9.198;2024-02-23T10:44:51;8.90;99.90
8595;DHT22;4335;48.860;9.198;2024-02-23T10:47:40;9.00;99.90
8595;DHT22;4335;48.860;9.198;2024-02-23T10:50:14;9.20;99.90
8595;DHT22;4335;48.860;9.198;2024-02-23T10:52:43;9.40;99.90
8595;DHT22;4335;48.860;9.198;2024-02-23T10:55:11;9.60;99.90
8595;DHT22;4335;48.860;9.198;2024-02-23T10:57:53;10.30;99.90
8595;DHT22;4335;48.860;9.198;2024-02-23T11:00:24;10.80;99.90
8595;DHT22;4335;48.860;9.198;2024-02-23T11:02:53;11.40;99.90
8595;DHT22;4335;48.860;9.198;2024-02-23T11:05:27;11.90;99.90
8595;DHT22;4335;48.860;9.198;2024-02-23T11:07:58;12.00;99.90
8595;DHT22;4335;48.860;9.198;2024-02-23T11:10:26;12.20;99.90
8595;DHT22;4335;48.860;9.198;2024-02-23T11:12:58;12.10;99.90
8595;DHT22;4335;48.860;9.198;2024-02-23T11:15:26;12.10;99.90
8595;DHT22;4335;48.860;9.198;2024-02-23T11:17:54;11.90;99.90
8595;DHT22;4335;48.860;9.198;2024-02-23T11:20:34;11.90;99.90
8595;DHT22;4335;48.860;9.198;2024-02-23T11:23:13;11.60;99.90
8595;DHT22;4335;48.860;9.198;2024-02-23T11:25:41;11.60;99.90
8595;DHT22;4335;48.860;9.198;2024-02-23T11:28:08;11.20;99.90
8595;DHT22;4335;48.860;9.198;2024-02-23T11:30:44;10.90;99.90
8595;DHT22;4335;48.860;9.198;2024-02-23T11:33:26;10.80;99.90
8595;DHT22;4335;48.860;9.198;2024-02-23T11:36:05;10.60;99.90
8595;DHT22;4335;48.860;9.198;2024-02-23T11:38:53;10.60;99.90
8595;DHT22;4335;48.860;9.198;2024-02-23T11:41:24;10.60;99.90
8595;DHT22;4335;48.860;9.198;2024-02-23T11:43:53;10.60;99.90
8595;DHT22;4335;48.860;9.198;2024-02-23T11:46:21;10.60;99.90
8595;DHT22;4335;48.860;9.198;2024-02-23T11:48:49;10.50;99.90
8595;DHT22;4335;48.860;9.198;2024-02-23T11:51:19;10.50;99.90
8595;DHT22;4335;48.860;9.198;2024-02-23T11:53:49;10.50;99.90
8595;DHT22;4335;48.860;9.198;2024-02-23T11:56:20;10.40;99.90
8595;DHT22;4335;48.860;9.198;2024-02-23T11:58:50;10.40;99.90
8595;DHT22;4335;48.860;9.198;2024-02-23T12:01:17;10.30;99.90
8595;DHT22;4335;48.860;9.198;2024-02-23T12:03:48;10.20;99.90
8595;DHT22;4335;48.860;9.198;2024-02-23T12:06:15;10.00;99.90
8595;DHT22;4335;48.860;9.198;2024-02-23T12:08:54;10.00;99.90
8595;DHT22;4335;48.860;9.198;2024-02-23T12:11:25;9.90;99.90
8595;DHT22;4335;48.860;9.198;2024-02-23T12:14:02;9.90;99.90
8595;DHT22;4335;48.860;9.198;2024-02-23T12:16:36;9.90;99.90
8595;DHT22;4335;48.860;9.198;2024-02-23T12:19:18;9.90;99.90
8595;DHT22;4335;48.860;9.198;2024-02-23T12:21:46;9.90;99.90
8595;DHT22;4335;48.860;9.198;2024-02-23T12:24:15;9.90;99.90
8595;DHT22;4335;48.860;9.198;2024-02-23T12:26:42;9.90;99.90
8595;DHT22;4335;48.860;9.198;2024-02-23T12:29:10;9.80;99.90
8595;DHT22;4335;48.860;9.198;2024-02-23T12:31:47;9.60;99.90
8595;DHT22;4335;48.860;9.198;2024-02-23T12:34:17;9.50;99.90
8595;DHT22;4335;48.860;9.198;2024-02-23T12:36:46;9.40;99.90
8595;DHT22;4335;48.860;9.198;2024-02-23T12:39:18;9.40;99.90
8595;DHT22;4335;48.860;9.198;2024-02-23T12:41:53;9.40;99.90
8595;DHT22;4335;48.860;9.198;2024-02-23T12:44:24;9.60;99.90
8595;DHT22;4335;48.860;9.198;2024-02-23T12:46:51;9.60;99.90
8595;DHT22;4335;48.860;9.198;2024-02-23T12:49:22;9.80;99.90
8595;DHT22;4335;48.860;9.198;2024-02-23T12:51:49;9.70;99.90
8595;DHT22;4335;48.860;9.198;2024-02-23T12:54:21;9.80;99.90
8595;DHT22;4335;48.860;9.198;2024-02-23T12:56:56;9.80;99.90
8595;DHT22;4335;48.860;9.198;2024-02-23T12:59:24;9.80;99.90
8595;DHT22;4335;48.860;9.198;2024-02-23T13:01:56;9.80;99.90
8595;DHT22;4335;48.860;9.198;2024-02-23T13:04:23;9.80;99.90
8595;DHT22;4335;48.860;9.198;2024-02-23T13:06:50;9.80;99.90
8595;DHT22;4335;48.860;9.198;2024-02-23T13:09:21;9.90;99.90
8595;DHT22;4335;48.860;9.198;2024-02-23T13:11:48;9.80;99.90
8595;DHT22;4335;48.860;9.198;2024-02-23T13:14:16;9.80;99.90
8595;DHT22;4335;48.860;9.198;2024-02-23T13:16:46;9.80;99.90
8595;DHT22;4335;48.860;9.198;2024-02-23T13:19:14;9.90;99.90
8595;DHT22;4335;48.860;9.198;2024-02-23T13:21:49;9.90;99.90
8595;DHT22;4335;48.860;9.198;2024-02-23T13:24:17;9.80;99.90
8595;DHT22;4335;48.860;9.198;2024-02-23T13:26:48;9.90;99.90
8595;DHT22;4335;48.860;9.198;2024-02-23T13:29:15;9.80;99.90
8595;DHT22;4335;48.860;9.198;2024-02-23T13:31:43;9.70;99.90
8595;DHT22;4335;48.860;9.198;2024-02-23T13:34:14;9.80;99.90
8595;DHT22;4335;48.860;9.198;2024-02-23T13:36:43;9.80;99.90
8595;DHT22;4335;48.860;9.198;2024-02-23T13:39:11;9.80;99.90
8595;DHT22;4335;48.860;9.198;2024-02-23T13:41:38;9.80;99.90
8595;DHT22;4335;48.860;9.198;2024-02-23T13:44:07;9.80;99.90
8595;DHT22;4335;48.860;9.198;2024-02-23T13:46:40;9.80;99.90
8595;DHT22;4335;48.860;9.198;2024-02-23T13:49:10;9.80;99.90
8595;DHT22;4335;48.860;9.198;2024-02-23T13:51:39;9.70;99.90
8595;DHT22;4335;48.860;9.198;2024-02-23T13:54:12;9.80;99.90
8595;DHT22;4335;48.860;9.198;2024-02-23T13:56:39;9.70;99.90
8595;DHT22;4335;48.860;9.198;2024-02-23T13:59:11;9.70;99.90
8595;DHT22;4335;48.860;9.198;2024-02-23T14:01:39;9.80;99.90
8595;DHT22;4335;48.860;9.198;2024-02-23T14:04:07;9.80;99.90
8595;DHT22;4335;48.860;9.198;2024-02-23T14:06:40;9.80;99.90
8595;DHT22;4335;48.860;9.198;2024-02-23T14:09:09;9.90;99.90
8595;DHT22;4335;48.860;9.198;2024-02-23T14:11:39;9.90;99.90
8595;DHT22;4335;48.860;9.198;2024-02-23T14:14:07;9.90;99.90
8595;DHT22;4335;48.860;9.198;2024-02-23T14:16:36;9.90;99.90
8595;DHT22;4335;48.860;9.198;2024-02-23T14:19:03;9.90;99.90
8595;DHT22;4335;48.860;9.198;2024-02-23T14:21:34;9.90;99.90
8595;DHT22;4335;48.860;9.198;2024-02-23T14:24:03;9.90;99.90
8595;DHT22;4335;48.860;9.198;2024-02-23T14:26:31;10.00;99.90
8595;DHT22;4335;48.860;9.198;2024-02-23T14:28:59;10.00;99.90
8595;DHT22;4335;48.860;9.198;2024-02-23T14:31:28;10.10;99.90
8595;DHT22;4335;48.860;9.198;2024-02-23T14:33:56;10.20;99.90
8595;DHT22;4335;48.860;9.198;2024-02-23T14:36:24;10.20;99.90
8595;DHT22;4335;48.860;9.198;2024-02-23T14:38:52;10.30;99.90
8595;DHT22;4335;48.860;9.198;2024-02-23T14:41:19;10.30;99.90
8595;DHT22;4335;48.860;9.198;2024-02-23T14:43:47;10.30;99.90
8595;DHT22;4335;48.860;9.198;2024-02-23T14:46:17;10.30;99.90
8595;DHT22;4335;48.860;9.198;2024-02-23T14:48:49;10.30;99.90
8595;DHT22;4335;48.860;9.198;2024-02-23T14:51:18;10.20;99.90
8595;DHT22;4335;48.860;9.198;2024-02-23T14:53:45;10.20;99.90
8595;DHT22;4335;48.860;9.198;2024-02-23T14:56:12;10.20;99.90
8595;DHT22;4335;48.860;9.198;2024-02-23T14:58:39;10.10;99.90
8595;DHT22;4335;48.860;9.198;2024-02-23T15:01:07;10.10;99.90
8595;DHT22;4335;48.860;9.198;2024-02-23T15:03:37;10.00;99.90
8595;DHT22;4335;48.860;9.198;2024-02-23T15:06:07;10.00;99.90
8595;DHT22;4335;48.860;9.198;2024-02-23T15:08:37;10.00;99.90
8595;DHT22;4335;48.860;9.198;2024-02-23T15:11:08;9.90;99.90
8595;DHT22;4335;48.860;9.198;2024-02-23T15:13:35;9.80;99.90
8595;DHT22;4335;48.860;9.198;2024-02-23T15:16:06;9.80;99.90
8595;DHT22;4335;48.860;9.198;2024-02-23T15:18:33;9.80;99.90
8595;DHT22;4335;48.860;9.198;2024-02-23T15:21:01;9.80;99.90
8595;DHT22;4335;48.860;9.198;2024-02-23T15:23:29;9.80;99.90
8595;DHT22;4335;48.860;9.198;2024-02-23T15:25:57;9.70;99.90
8595;DHT22;4335;48.860;9.198;2024-02-23T15:28:24;9.60;99.90
8595;DHT22;4335;48.860;9.198;2024-02-23T15:30:52;9.50;99.90
8595;DHT22;4335;48.860;9.198;2024-02-23T15:33:20;9.60;99.90
8595;DHT22;4335;48.860;9.198;2024-02-23T15:35:48;9.50;99.90
8595;DHT22;4335;48.860;9.198;2024-02-23T15:38:15;9.40;99.90
8595;DHT22;4335;48.860;9.198;2024-02-23T15:40:46;9.40;99.90
8595;DHT22;4335;48.860;9.198;2024-02-23T15:43:17;9.40;99.90
8595;DHT22;4335;48.860;9.198;2024-02-23T15:45:46;9.40;99.90
8595;DHT22;4335;48.860;9.198;2024-02-23T15:48:17;9.50;99.90
8595;DHT22;4335;48.860;9.198;2024-02-23T15:50:44;9.50;99.90
8595;DHT22;4335;48.860;9.198;2024-02-23T15:53:12;9.40;99.90
8595;DHT22;4335;48.860;9.198;2024-02-23T15:55:39;9.40;99.90
8595;DHT22;4335;48.860;9.198;2024-02-23T15:58:07;9.30;99.90
8595;DHT22;4335;48.860;9.198;2024-02-23T16:00:36;9.30;99.90
8595;DHT22;4335;48.860;9.198;2024-02-23T16:03:03;9.30;99.90
8595;DHT22;4335;48.860;9.198;2024-02-23T16:05:32;9.20;99.90
8595;DHT22;4335;48.860;9.198;2024-02-23T16:08:02;9.20;99.90
8595;DHT22;4335;48.860;9.198;2024-02-23T16:10:30;9.20;99.90
8595;DHT22;4335;48.860;9.198;2024-02-23T16:13:00;9.30;99.90
8595;DHT22;4335;48.860;9.198;2024-02-23T16:15:28;9.30;99.90
8595;DHT22;4335;48.860;9.198;2024-02-23T16:17:59;9.30;99.90
8595;DHT22;4335;48.860;9.198;2024-02-23T16:20:27;9.30;99.90
8595;DHT22;4335;48.860;9.198;2024-02-23T16:22:54;9.30;99.90
8595;DHT22;4335;48.860;9.198;2024-02-23T16:25:24;9.20;99.90
8595;DHT22;4335;48.860;9.198;2024-02-23T16:27:52;9.20;99.90
8595;DHT22;4335;48.860;9.198;2024-02-23T16:30:19;9.10;99.90
8595;DHT22;4335;48.860;9.198;2024-02-23T16:32:50;9.00;99.90